Time;durP1;ratioP1;P1;durP2;ratioP2;P2;SDS_P1;SDS_P2;PMS_P1;PMS_P2;Temp;Humidity;BMP_temperature;BMP_pressure;BME280_temperature;BME280_humidity;BME280_pressure;Samples;Min_cycle;Max_cycle;Signal;HPM_P1;HPM_P2
2022/11/18 00:00:54;;;;;;;19.33;13.00;;;1.50;99.90;;;;;;5090438;28;20024;-63
2022/11/18 00:03:20;;;;;;;19.25;13.43;;;1.50;99.90;;;;;;5090838;28;20150;-61
2022/11/18 00:05:54;;;;;;;19.30;13.00;;;1.50;99.90;;;;;;5091229;28;20043;-63
2022/11/18 00:08:20;;;;;;;17.30;12.25;;;1.40;99.90;;;;;;5076546;28;20558;-62
2022/11/18 00:10:45;;;;;;;19.20;12.77;;;1.40;99.90;;;;;;5091250;28;20096;-63
2022/11/18 00:16:04;;;;;;;20.77;12.55;;;1.40;99.90;;;;;;5090620;28;20061;-61
2022/11/18 00:18:30;;;;;;;19.95;13.98;;;1.40;99.90;;;;;;5084609;28;20093;-61
2022/11/18 00:21:00;;;;;;;20.05;13.38;;;1.40;99.90;;;;;;5090542;28;20127;-60
2022/11/18 00:23:26;;;;;;;18.35;12.50;;;1.30;99.90;;;;;;5090013;28;20505;-63
2022/11/18 00:25:52;;;;;;;20.00;13.40;;;1.30;99.90;;;;;;5090510;28;20025;-62
2022/11/18 00:28:17;;;;;;;20.50;13.98;;;1.30;99.90;;;;;;5090575;28;20142;-62
2022/11/18 00:30:43;;;;;;;20.30;13.98;;;1.30;99.90;;;;;;5089515;28;20487;-62
2022/11/18 00:33:08;;;;;;;19.20;13.07;;;1.30;99.90;;;;;;5089895;28;20036;-62
2022/11/18 00:35:34;;;;;;;20.48;12.88;;;1.30;99.90;;;;;;5089608;28;20027;-63
2022/11/18 00:38:00;;;;;;;17.48;12.55;;;1.30;99.90;;;;;;5090017;28;20119;-62
2022/11/18 00:40:25;;;;;;;19.40;13.80;;;1.30;99.90;;;;;;5090172;28;20060;-61
2022/11/18 00:42:51;;;;;;;19.40;12.98;;;1.20;99.90;;;;;;5090172;28;20036;-62
2022/11/18 00:45:18;;;;;;;22.50;13.70;;;1.30;99.90;;;;;;5089617;28;20031;-62
2022/11/18 00:47:43;;;;;;;23.20;15.30;;;1.20;99.90;;;;;;5089477;28;20032;-61
2022/11/18 00:50:10;;;;;;;19.27;13.80;;;1.20;99.90;;;;;;5089837;28;20081;-62
2022/11/18 00:52:36;;;;;;;19.02;13.32;;;1.20;99.90;;;;;;5088958;28;20035;-61
2022/11/18 00:55:01;;;;;;;18.88;13.00;;;1.20;99.90;;;;;;5074936;28;20035;-60
2022/11/18 00:57:27;;;;;;;19.45;13.82;;;1.10;99.90;;;;;;5074566;28;20147;-60
2022/11/18 00:59:52;;;;;;;19.63;13.02;;;1.10;99.90;;;;;;5089804;28;20036;-60
2022/11/18 01:02:18;;;;;;;20.40;13.20;;;1.20;99.90;;;;;;5088907;28;20035;-60
2022/11/18 01:04:43;;;;;;;20.40;14.18;;;1.10;99.90;;;;;;5089690;28;20066;-60
2022/11/18 01:07:09;;;;;;;20.17;13.57;;;1.10;99.90;;;;;;5089984;28;20117;-61
2022/11/18 01:09:35;;;;;;;19.95;13.60;;;1.10;99.90;;;;;;5071496;28;20032;-62
2022/11/18 01:14:44;;;;;;;19.45;14.02;;;1.00;99.90;;;;;;5089986;28;20050;-60
2022/11/18 01:17:10;;;;;;;20.50;14.68;;;1.00;99.90;;;;;;5089995;28;20032;-61
2022/11/18 01:19:35;;;;;;;22.25;14.20;;;1.00;99.90;;;;;;5089740;28;20498;-60
2022/11/18 01:22:02;;;;;;;19.70;14.13;;;1.00;99.90;;;;;;5089378;28;20016;-60
2022/11/18 01:24:31;;;;;;;21.55;14.43;;;1.00;99.90;;;;;;5089567;28;20055;-60
2022/11/18 01:26:57;;;;;;;18.98;14.05;;;1.00;99.90;;;;;;5085328;28;20016;-59
2022/11/18 01:29:23;;;;;;;20.17;14.32;;;1.00;99.90;;;;;;5089348;28;20032;-58
2022/11/18 01:31:48;;;;;;;19.17;14.55;;;0.90;99.90;;;;;;5088995;28;20032;-60
2022/11/18 01:34:14;;;;;;;22.98;14.77;;;1.00;99.90;;;;;;5081778;28;20028;-60
2022/11/18 01:36:39;;;;;;;21.50;14.52;;;1.00;99.90;;;;;;5078643;28;20052;-61
2022/11/18 01:39:05;;;;;;;20.27;14.48;;;0.90;99.90;;;;;;5089096;28;20039;-57
2022/11/18 01:41:31;;;;;;;20.00;13.88;;;1.00;99.90;;;;;;5089241;28;20039;-59
2022/11/18 01:43:57;;;;;;;23.60;14.82;;;0.90;99.90;;;;;;5089288;28;20035;-62
2022/11/18 01:46:25;;;;;;;20.75;14.30;;;0.90;99.90;;;;;;5074028;28;20042;-62
2022/11/18 01:48:59;;;;;;;22.27;15.05;;;0.90;99.90;;;;;;5089035;28;20028;-62
2022/11/18 01:51:35;;;;;;;22.08;14.80;;;0.90;99.90;;;;;;5089004;28;20016;-61
2022/11/18 01:54:18;;;;;;;22.33;14.85;;;0.90;99.90;;;;;;5089616;28;20082;-60
2022/11/18 01:56:49;;;;;;;23.27;16.23;;;0.90;99.90;;;;;;5088336;28;20027;-62
2022/11/18 01:59:18;;;;;;;21.42;14.07;;;0.90;99.90;;;;;;5086501;28;20032;-63
2022/11/18 02:01:44;;;;;;;23.63;15.65;;;0.80;99.90;;;;;;5086392;28;20031;-63
2022/11/18 02:04:11;;;;;;;25.17;16.17;;;0.80;99.90;;;;;;5087417;28;20078;-63
2022/11/18 02:06:37;;;;;;;22.38;15.85;;;0.80;99.90;;;;;;5086539;28;20035;-63
2022/11/18 02:09:03;;;;;;;24.42;14.63;;;0.80;99.90;;;;;;5089355;28;20020;-63
2022/11/18 02:14:15;;;;;;;22.55;14.88;;;0.80;99.90;;;;;;5088911;28;20035;-62
2022/11/18 02:16:46;;;;;;;21.17;15.02;;;0.70;99.90;;;;;;5089094;28;20051;-63
2022/11/18 02:19:17;;;;;;;19.73;14.85;;;0.70;99.90;;;;;;5070630;28;20075;-62
2022/11/18 02:22:01;;;;;;;21.00;15.15;;;0.80;99.90;;;;;;5088851;28;20028;-59
2022/11/18 02:24:42;;;;;;;19.00;13.05;;;0.70;99.90;;;;;;5081886;28;20032;-60
2022/11/18 02:27:49;;;;;;;21.45;14.73;;;0.80;99.90;;;;;;5088953;28;20020;-60
2022/11/18 02:30:16;;;;;;;20.67;13.90;;;0.70;99.90;;;;;;5088873;28;20028;-59
2022/11/18 02:32:45;;;;;;;19.67;14.05;;;0.70;99.90;;;;;;5089584;28;20107;-60
2022/11/18 02:35:30;;;;;;;15.98;12.95;;;0.70;99.90;;;;;;5089297;28;20017;-59
2022/11/18 02:38:07;;;;;;;19.17;13.85;;;0.70;99.90;;;;;;5070828;28;20561;-59
2022/11/18 02:40:35;;;;;;;21.33;14.13;;;0.70;99.90;;;;;;5076627;28;20032;-60
2022/11/18 02:43:07;;;;;;;19.17;12.85;;;0.70;99.90;;;;;;5088366;28;20043;-59
2022/11/18 02:45:33;;;;;;;18.73;13.57;;;0.70;99.90;;;;;;5089123;28;20036;-60
2022/11/18 02:48:07;;;;;;;19.48;13.90;;;0.70;99.90;;;;;;5088721;28;20048;-60
2022/11/18 02:50:35;;;;;;;16.75;12.73;;;0.70;99.90;;;;;;5088132;28;20028;-60
2022/11/18 02:53:05;;;;;;;23.40;13.50;;;0.70;99.90;;;;;;5088124;28;20100;-59
2022/11/18 02:55:34;;;;;;;19.95;13.07;;;0.70;99.90;;;;;;5089149;28;20422;-59
2022/11/18 02:58:01;;;;;;;19.27;13.98;;;0.70;99.90;;;;;;5088390;28;20052;-60
2022/11/18 03:00:27;;;;;;;18.67;13.15;;;0.70;99.90;;;;;;5089013;28;20032;-60
2022/11/18 03:05:34;;;;;;;16.52;12.40;;;0.70;99.90;;;;;;5089345;22;20677;-64
2022/11/18 03:08:07;;;;;;;18.00;13.07;;;0.70;99.90;;;;;;5068173;28;20089;-63
2022/11/18 03:10:41;;;;;;;16.25;12.90;;;0.70;99.90;;;;;;5071449;28;20456;-64
2022/11/18 03:13:16;;;;;;;20.35;13.15;;;0.70;99.90;;;;;;5071554;28;20037;-62
2022/11/18 03:15:56;;;;;;;18.60;12.98;;;0.70;99.90;;;;;;5067275;28;20028;-65
2022/11/18 03:18:48;;;;;;;17.75;13.30;;;0.70;99.90;;;;;;5067099;28;20020;-61
2022/11/18 03:21:22;;;;;;;18.95;13.30;;;0.70;99.90;;;;;;5071192;28;20113;-62
2022/11/18 03:24:14;;;;;;;18.70;13.13;;;0.70;99.90;;;;;;5071656;28;20032;-63
2022/11/18 03:26:47;;;;;;;18.05;12.45;;;0.60;99.90;;;;;;5057685;28;20513;-62
2022/11/18 03:29:20;;;;;;;20.27;12.77;;;0.70;99.90;;;;;;5071511;28;20129;-63
2022/11/18 03:31:49;;;;;;;18.42;13.75;;;0.70;99.90;;;;;;5071585;28;20036;-62
2022/11/18 03:34:28;;;;;;;19.13;13.15;;;0.70;99.90;;;;;;5070754;28;20120;-63
2022/11/18 03:36:59;;;;;;;21.85;14.73;;;0.70;99.90;;;;;;5071548;28;20441;-63
2022/11/18 03:39:27;;;;;;;18.83;13.40;;;0.60;99.90;;;;;;5071239;28;20499;-63
2022/11/18 03:41:59;;;;;;;18.48;12.88;;;0.70;99.90;;;;;;5071146;28;20029;-63
2022/11/18 03:44:32;;;;;;;18.70;12.90;;;0.70;99.90;;;;;;5071355;28;20063;-62
2022/11/18 03:47:17;;;;;;;18.50;13.52;;;0.70;99.90;;;;;;5061052;28;20492;-62
2022/11/18 03:49:49;;;;;;;19.42;13.18;;;0.70;99.90;;;;;;5071198;28;20020;-62
2022/11/18 03:52:21;;;;;;;18.20;13.63;;;0.70;99.90;;;;;;5071239;28;20028;-62
2022/11/18 03:54:51;;;;;;;20.02;14.13;;;0.70;99.90;;;;;;5070644;28;20028;-62
2022/11/18 03:57:50;;;;;;;20.75;13.82;;;0.70;99.90;;;;;;5069172;28;20051;-63
2022/11/18 04:00:18;;;;;;;18.58;12.93;;;0.70;99.90;;;;;;5053360;28;20044;-62
2022/11/18 04:02:46;;;;;;;20.30;14.02;;;0.70;99.90;;;;;;5070502;28;20085;-61
2022/11/18 04:05:14;;;;;;;16.85;12.93;;;0.70;99.90;;;;;;5070256;28;20702;-63
2022/11/18 04:07:58;;;;;;;20.42;14.43;;;0.70;99.90;;;;;;5070633;28;20028;-62
2022/11/18 04:10:37;;;;;;;19.75;13.90;;;0.70;99.90;;;;;;5066781;28;20185;-63
2022/11/18 04:13:05;;;;;;;19.58;13.27;;;0.70;99.90;;;;;;5070282;28;20032;-61
2022/11/18 04:15:31;;;;;;;25.20;13.93;;;0.70;99.90;;;;;;5066284;28;20491;-62
2022/11/18 04:17:58;;;;;;;20.33;14.50;;;0.70;99.90;;;;;;5070138;28;20027;-62
2022/11/18 04:20:24;;;;;;;21.17;14.77;;;0.70;99.90;;;;;;5070049;28;20031;-62
2022/11/18 04:22:50;;;;;;;23.27;15.57;;;0.70;99.90;;;;;;5069762;28;20024;-62
2022/11/18 04:25:15;;;;;;;24.27;15.13;;;0.60;99.90;;;;;;5070214;28;20028;-63
2022/11/18 04:27:41;;;;;;;21.88;16.17;;;0.60;99.90;;;;;;5070250;28;20017;-63
2022/11/18 04:30:07;;;;;;;27.70;15.88;;;0.60;99.90;;;;;;5069809;28;20127;-62
2022/11/18 04:32:33;;;;;;;23.08;15.45;;;0.60;99.90;;;;;;5070042;28;20028;-62
2022/11/18 04:34:59;;;;;;;21.98;15.00;;;0.60;99.90;;;;;;5069682;28;20024;-63
2022/11/18 04:37:25;;;;;;;19.55;14.38;;;0.60;99.90;;;;;;5059768;28;20032;-62
2022/11/18 04:39:51;;;;;;;23.10;16.15;;;0.60;99.90;;;;;;5069426;28;20036;-63
2022/11/18 04:42:16;;;;;;;23.88;16.48;;;0.60;99.90;;;;;;5069377;28;20663;-63
2022/11/18 04:44:42;;;;;;;22.05;16.55;;;0.60;99.90;;;;;;5070252;28;20028;-62
2022/11/18 04:47:08;;;;;;;22.63;15.30;;;0.60;99.90;;;;;;5069759;28;20048;-64
2022/11/18 04:49:34;;;;;;;21.48;14.80;;;0.60;99.90;;;;;;5069430;28;20108;-63
2022/11/18 04:52:00;;;;;;;20.67;15.07;;;0.60;99.90;;;;;;5069495;28;20033;-63
2022/11/18 04:54:26;;;;;;;22.35;15.85;;;0.60;99.90;;;;;;5069862;28;20111;-63
2022/11/18 04:56:53;;;;;;;23.90;17.20;;;0.60;99.90;;;;;;5069233;28;20548;-64
2022/11/18 04:59:24;;;;;;;21.52;15.20;;;0.50;99.90;;;;;;5069558;28;20037;-64
2022/11/18 05:01:51;;;;;;;23.77;16.30;;;0.50;99.90;;;;;;5069432;28;20091;-63
2022/11/18 05:04:19;;;;;;;22.02;15.15;;;0.50;99.90;;;;;;5069421;28;20063;-61
2022/11/18 05:06:45;;;;;;;21.45;14.45;;;0.60;99.90;;;;;;5069702;28;20028;-63
2022/11/18 05:09:10;;;;;;;21.42;15.73;;;0.50;99.90;;;;;;5069315;28;20151;-62
2022/11/18 05:14:20;;;;;;;24.92;16.23;;;0.50;99.90;;;;;;5063378;28;20043;-64
2022/11/18 05:16:46;;;;;;;21.08;14.80;;;0.60;99.90;;;;;;5069169;28;20021;-62
2022/11/18 05:19:11;;;;;;;28.80;16.25;;;0.60;99.90;;;;;;5068791;28;20032;-64
2022/11/18 05:21:37;;;;;;;22.60;16.10;;;0.60;99.90;;;;;;5069116;28;20035;-64
2022/11/18 05:24:03;;;;;;;27.15;16.42;;;0.60;99.90;;;;;;5069665;28;20028;-64
2022/11/18 05:26:29;;;;;;;24.08;16.60;;;0.60;99.90;;;;;;5069083;28;20028;-63
2022/11/18 05:28:55;;;;;;;25.23;17.73;;;0.60;99.90;;;;;;5068981;28;20032;-63
2022/11/18 05:31:20;;;;;;;21.80;15.77;;;0.60;99.90;;;;;;5068606;28;20032;-64
2022/11/18 05:33:46;;;;;;;25.38;16.77;;;0.60;99.90;;;;;;5068442;28;20032;-63
2022/11/18 05:36:15;;;;;;;24.02;16.85;;;0.60;99.90;;;;;;5069033;28;20110;-63
2022/11/18 05:38:41;;;;;;;25.55;15.93;;;0.60;99.90;;;;;;5069093;28;20606;-63
2022/11/18 05:41:07;;;;;;;25.92;17.38;;;0.60;99.90;;;;;;5068721;28;20029;-61
2022/11/18 05:43:33;;;;;;;26.27;16.40;;;0.50;99.90;;;;;;5068718;28;20035;-63
2022/11/18 05:46:00;;;;;;;26.80;18.02;;;0.50;99.90;;;;;;5068342;28;20028;-62
2022/11/18 05:48:25;;;;;;;25.60;16.40;;;0.50;99.90;;;;;;5068985;28;20086;-63
2022/11/18 05:50:52;;;;;;;22.50;15.82;;;0.50;99.90;;;;;;5068564;28;20020;-59
2022/11/18 05:53:20;;;;;;;23.33;16.88;;;0.50;99.90;;;;;;5068601;28;20495;-63
2022/11/18 05:56:09;;;;;;;23.40;16.80;;;0.50;99.90;;;;;;5068664;28;20078;-63
2022/11/18 05:58:34;;;;;;;23.45;16.67;;;0.50;99.90;;;;;;5057512;28;20025;-63
2022/11/18 06:01:03;;;;;;;25.83;18.23;;;0.50;99.90;;;;;;5068864;28;20082;-64
2022/11/18 06:03:31;;;;;;;22.98;15.65;;;0.50;99.90;;;;;;5058793;28;20414;-63
2022/11/18 06:06:00;;;;;;;24.10;17.33;;;0.50;99.90;;;;;;5068873;28;20512;-62
2022/11/18 06:08:29;;;;;;;23.90;16.63;;;0.50;99.90;;;;;;5054633;28;20028;-63
2022/11/18 06:10:55;;;;;;;25.30;16.92;;;0.50;99.90;;;;;;5058934;28;20172;-63
2022/11/18 06:13:49;;;;;;;25.08;16.10;;;0.40;99.90;;;;;;5067830;28;20119;-64
2022/11/18 06:16:16;;;;;;;23.42;16.30;;;0.40;99.90;;;;;;5068181;28;20021;-63
2022/11/18 06:18:42;;;;;;;23.88;16.33;;;0.40;99.90;;;;;;5068361;28;20036;-63
2022/11/18 06:21:07;;;;;;;27.15;17.58;;;0.40;99.90;;;;;;5068343;28;20036;-63
2022/11/18 06:23:36;;;;;;;25.73;17.00;;;0.40;99.90;;;;;;5068165;28;20437;-63
2022/11/18 06:26:01;;;;;;;25.88;17.10;;;0.40;99.90;;;;;;5067653;28;20035;-64
2022/11/18 06:28:28;;;;;;;26.58;18.15;;;0.40;99.90;;;;;;5068693;28;20545;-64
2022/11/18 06:30:54;;;;;;;23.50;16.67;;;0.40;99.90;;;;;;5060335;28;20028;-63
2022/11/18 06:33:19;;;;;;;24.20;15.82;;;0.40;99.90;;;;;;5068083;28;20082;-63
2022/11/18 06:35:45;;;;;;;24.58;16.80;;;0.40;99.90;;;;;;5058551;28;20032;-64
2022/11/18 06:38:10;;;;;;;24.42;16.00;;;0.40;99.90;;;;;;5058551;28;20027;-62
2022/11/18 06:40:36;;;;;;;25.23;17.17;;;0.50;99.90;;;;;;5068495;28;20036;-63
2022/11/18 06:48:35;;;;;;;22.23;15.85;;;0.40;99.90;;;;;;5071575;28;20039;-63
2022/11/18 06:51:04;;;;;;;22.52;14.68;;;0.40;99.90;;;;;;5072032;28;20028;-62
2022/11/18 06:53:30;;;;;;;24.40;16.08;;;0.40;99.90;;;;;;5071795;28;20135;-64
2022/11/18 06:55:55;;;;;;;20.85;14.90;;;0.40;99.90;;;;;;5071943;28;20037;-64
2022/11/18 06:58:21;;;;;;;22.95;14.88;;;0.40;99.90;;;;;;5060544;28;20064;-64
2022/11/18 07:00:46;;;;;;;22.85;15.98;;;0.40;99.90;;;;;;5063469;28;20059;-65
2022/11/18 07:03:12;;;;;;;26.13;17.55;;;0.40;99.90;;;;;;5071385;28;20064;-65
2022/11/18 07:05:37;;;;;;;18.95;14.05;;;0.40;99.90;;;;;;5072154;28;20785;-65
2022/11/18 07:08:03;;;;;;;26.05;16.85;;;0.40;99.90;;;;;;5072406;28;20400;-65
2022/11/18 07:10:28;;;;;;;24.08;16.15;;;0.40;99.90;;;;;;5072280;28;20537;-64
2022/11/18 07:12:54;;;;;;;27.02;17.42;;;0.40;99.90;;;;;;5063746;28;20076;-66
2022/11/18 07:15:19;;;;;;;28.40;17.30;;;0.40;99.90;;;;;;5071214;28;20058;-63
2022/11/18 07:17:45;;;;;;;25.02;17.27;;;0.40;99.90;;;;;;5071939;28;20089;-65
2022/11/18 07:20:10;;;;;;;27.95;17.75;;;0.40;99.90;;;;;;5071138;28;20051;-62
2022/11/18 07:22:36;;;;;;;24.38;16.17;;;0.40;99.90;;;;;;5060229;28;20029;-64
2022/11/18 07:25:01;;;;;;;24.02;17.00;;;0.40;99.90;;;;;;5072606;28;20043;-65
2022/11/18 07:27:27;;;;;;;30.38;17.85;;;0.40;99.90;;;;;;5062816;28;20078;-65
2022/11/18 07:29:52;;;;;;;30.63;19.23;;;0.40;99.90;;;;;;5072797;28;20044;-65
2022/11/18 07:32:18;;;;;;;29.05;18.33;;;0.40;99.90;;;;;;5070852;28;20041;-64
2022/11/18 07:34:44;;;;;;;29.17;17.95;;;0.40;99.90;;;;;;5071952;28;20029;-65
2022/11/18 07:37:10;;;;;;;26.27;17.90;;;0.40;99.90;;;;;;5062198;28;20116;-65
2022/11/18 07:39:35;;;;;;;31.83;18.70;;;0.40;99.90;;;;;;5071445;28;20500;-64
2022/11/18 07:42:01;;;;;;;28.48;16.85;;;0.40;99.90;;;;;;5071552;28;20025;-64
2022/11/18 07:44:26;;;;;;;29.25;17.85;;;0.40;99.90;;;;;;5071748;28;20496;-64
2022/11/18 07:46:52;;;;;;;32.75;20.13;;;0.40;99.90;;;;;;5065397;28;20031;-65
2022/11/18 07:49:18;;;;;;;34.60;20.00;;;0.40;99.90;;;;;;5071259;28;20032;-64
2022/11/18 07:51:43;;;;;;;31.90;19.98;;;0.30;99.90;;;;;;5071935;28;20036;-65
2022/11/18 07:54:11;;;;;;;33.30;18.88;;;0.30;99.90;;;;;;5071484;28;20029;-63
2022/11/18 07:56:37;;;;;;;32.30;19.83;;;0.30;99.90;;;;;;5070956;28;20518;-64
2022/11/18 07:59:03;;;;;;;32.85;20.00;;;0.40;99.90;;;;;;5071637;28;20059;-65
2022/11/18 08:01:29;;;;;;;29.33;18.80;;;0.40;99.90;;;;;;5061237;28;20369;-64
2022/11/18 08:03:56;;;;;;;32.80;19.83;;;0.30;99.90;;;;;;5070845;28;20032;-65
2022/11/18 08:06:22;;;;;;;27.88;18.55;;;0.40;99.90;;;;;;5071694;28;20028;-65
2022/11/18 08:08:48;;;;;;;31.27;18.95;;;0.40;99.90;;;;;;5070976;28;20039;-64
2022/11/18 08:11:16;;;;;;;30.80;18.13;;;0.40;99.90;;;;;;5070772;28;20089;-64
2022/11/18 08:13:42;;;;;;;30.70;17.85;;;0.40;99.90;;;;;;5070820;28;20040;-64
2022/11/18 08:16:15;;;;;;;25.48;16.65;;;0.40;99.90;;;;;;5071136;28;20032;-63
2022/11/18 08:18:41;;;;;;;27.33;16.67;;;0.40;99.90;;;;;;5064706;28;20036;-64
2022/11/18 08:21:07;;;;;;;24.40;16.50;;;0.40;99.90;;;;;;5070871;28;20567;-64
2022/11/18 08:23:32;;;;;;;25.58;16.52;;;0.40;99.90;;;;;;5070201;28;20020;-64
2022/11/18 08:26:06;;;;;;;22.05;15.27;;;0.40;99.90;;;;;;5071575;28;20480;-65
2022/11/18 08:28:32;;;;;;;21.00;14.52;;;0.40;99.90;;;;;;5068869;28;20024;-63
2022/11/18 08:30:57;;;;;;;20.52;14.02;;;0.40;99.90;;;;;;5069146;28;20031;-65
2022/11/18 08:33:23;;;;;;;20.02;14.13;;;0.40;99.90;;;;;;5070938;28;20035;-65
2022/11/18 08:35:49;;;;;;;21.58;13.93;;;0.40;99.90;;;;;;5062040;28;20022;-66
2022/11/18 08:38:14;;;;;;;20.27;12.57;;;0.40;99.90;;;;;;5070561;28;20056;-62
2022/11/18 08:40:44;;;;;;;15.20;11.93;;;0.40;99.90;;;;;;5069659;28;20047;-63
2022/11/18 08:43:10;;;;;;;17.90;12.23;;;0.40;99.90;;;;;;5069292;28;20028;-63
2022/11/18 08:45:41;;;;;;;15.93;11.80;;;0.40;99.90;;;;;;5069998;28;20032;-63
2022/11/18 08:48:07;;;;;;;17.92;11.75;;;0.50;99.90;;;;;;5068337;28;20051;-64
2022/11/18 08:50:33;;;;;;;15.45;11.43;;;0.50;99.90;;;;;;5070801;28;20361;-64
2022/11/18 08:52:58;;;;;;;14.93;11.32;;;0.40;99.90;;;;;;5069478;28;20028;-62
2022/11/18 08:55:24;;;;;;;13.13;9.55;;;0.50;99.90;;;;;;5070591;28;20032;-61
2022/11/18 08:57:49;;;;;;;15.00;10.80;;;0.50;99.90;;;;;;5069885;28;20020;-64
2022/11/18 09:00:15;;;;;;;13.13;9.35;;;0.50;99.90;;;;;;5061691;28;20020;-64
2022/11/18 09:02:41;;;;;;;12.80;9.73;;;0.60;99.90;;;;;;5069726;28;20031;-64
2022/11/18 09:05:07;;;;;;;14.15;9.48;;;0.60;99.90;;;;;;5070083;28;20470;-65
2022/11/18 09:07:32;;;;;;;12.50;9.38;;;0.60;99.90;;;;;;5069600;28;20454;-66
2022/11/18 09:09:58;;;;;;;13.38;8.52;;;0.60;99.90;;;;;;5069138;28;20082;-64
2022/11/18 09:12:23;;;;;;;11.75;9.18;;;0.60;99.90;;;;;;5069716;28;20039;-65
2022/11/18 09:14:49;;;;;;;11.40;8.70;;;0.70;99.90;;;;;;5069625;28;20042;-64
2022/11/18 09:17:15;;;;;;;11.63;8.85;;;0.70;99.90;;;;;;5070123;28;20036;-65
2022/11/18 09:19:40;;;;;;;12.80;9.45;;;0.70;99.90;;;;;;5070063;28;20036;-63
2022/11/18 09:22:07;;;;;;;10.98;8.85;;;0.70;99.90;;;;;;5069360;28;20504;-65
2022/11/18 09:24:33;;;;;;;12.40;9.02;;;0.70;99.90;;;;;;5060343;28;20511;-63
2022/11/18 09:27:03;;;;;;;12.43;9.13;;;0.70;99.90;;;;;;5059797;28;20020;-64
2022/11/18 09:29:28;;;;;;;13.20;9.07;;;0.80;99.90;;;;;;5060063;28;20033;-65
2022/11/18 09:31:54;;;;;;;13.02;8.82;;;0.70;99.90;;;;;;5067897;28;20028;-65
2022/11/18 09:34:21;;;;;;;10.43;8.45;;;0.70;99.90;;;;;;5069627;28;20404;-65
2022/11/18 09:36:46;;;;;;;13.32;9.27;;;0.70;99.90;;;;;;5069476;28;20500;-65
2022/11/18 09:39:12;;;;;;;11.98;8.68;;;0.80;99.90;;;;;;5069200;28;20039;-65
2022/11/18 09:41:43;;;;;;;9.73;7.45;;;0.80;99.90;;;;;;5068964;28;20032;-65
2022/11/18 09:44:47;;;;;;;10.10;7.55;;;0.80;99.90;;;;;;5059998;28;20106;-65
2022/11/18 09:47:25;;;;;;;10.68;7.80;;;0.80;99.90;;;;;;5069533;28;20051;-66
2022/11/18 09:49:52;;;;;;;10.27;7.60;;;0.80;99.90;;;;;;5066256;28;20025;-65
2022/11/18 09:52:30;;;;;;;10.60;7.97;;;0.80;99.90;;;;;;5069251;28;20132;-65
2022/11/18 09:54:57;;;;;;;10.15;7.57;;;0.90;99.90;;;;;;5066915;28;20020;-65
2022/11/18 09:57:37;;;;;;;9.65;6.85;;;0.90;99.90;;;;;;5058459;28;20086;-65
2022/11/18 10:00:12;;;;;;;10.00;8.05;;;0.90;99.90;;;;;;5067655;28;20458;-64
2022/11/18 10:02:57;;;;;;;9.75;6.80;;;1.00;99.90;;;;;;5056112;28;20052;-62
2022/11/18 10:05:28;;;;;;;8.43;6.40;;;1.00;99.90;;;;;;5061996;28;20119;-64
2022/11/18 10:07:58;;;;;;;9.85;6.63;;;1.00;99.90;;;;;;5069034;28;20099;-63
2022/11/18 10:10:40;;;;;;;8.90;6.03;;;1.10;99.90;;;;;;5069417;28;20060;-64
2022/11/18 10:13:35;;;;;;;7.65;5.80;;;1.00;99.90;;;;;;5068624;28;20078;-64
2022/11/18 10:16:16;;;;;;;8.13;5.93;;;1.00;99.90;;;;;;5069145;28;20017;-65
2022/11/18 10:18:46;;;;;;;7.90;6.55;;;1.00;99.90;;;;;;5065612;28;20036;-65
2022/11/18 10:21:36;;;;;;;7.88;5.80;;;1.00;99.90;;;;;;5068698;28;20032;-65
2022/11/18 10:24:08;;;;;;;8.45;5.70;;;1.00;99.90;;;;;;5067324;28;20554;-64
2022/11/18 10:26:36;;;;;;;6.15;5.28;;;1.00;99.90;;;;;;5068805;28;20025;-65
2022/11/18 10:29:03;;;;;;;7.95;6.18;;;1.00;99.90;;;;;;5068427;28;20100;-64
2022/11/18 10:31:28;;;;;;;7.30;5.00;;;1.00;99.90;;;;;;5069550;28;20044;-63
2022/11/18 10:34:00;;;;;;;8.63;6.13;;;1.00;99.90;;;;;;5068485;28;20021;-65
2022/11/18 10:36:30;;;;;;;7.38;5.32;;;1.00;99.90;;;;;;5068611;28;20028;-65
2022/11/18 10:39:06;;;;;;;9.45;6.03;;;1.00;99.90;;;;;;5058906;28;20024;-65
2022/11/18 10:41:38;;;;;;;7.65;5.55;;;1.00;99.90;;;;;;5068415;28;20029;-65
2022/11/18 10:44:04;;;;;;;7.80;5.63;;;1.00;99.90;;;;;;5060733;28;20130;-64
2022/11/18 10:46:32;;;;;;;9.05;6.10;;;1.00;99.90;;;;;;5068822;28;20127;-66
2022/11/18 10:49:07;;;;;;;8.95;6.13;;;1.00;99.90;;;;;;5068239;28;20032;-63
2022/11/18 10:51:32;;;;;;;7.30;4.88;;;1.00;99.90;;;;;;5062288;28;20051;-65
2022/11/18 10:54:11;;;;;;;6.70;5.07;;;0.90;99.90;;;;;;5068783;28;20492;-64
2022/11/18 10:56:51;;;;;;;6.78;5.30;;;1.00;99.90;;;;;;5045390;28;20106;-62
2022/11/18 10:59:25;;;;;;;7.63;5.47;;;1.00;99.90;;;;;;5063174;28;20031;-61
2022/11/18 11:02:09;;;;;;;8.35;5.15;;;1.00;99.90;;;;;;5068472;28;20051;-64
2022/11/18 11:04:37;;;;;;;7.95;5.90;;;1.00;99.90;;;;;;5068213;28;20029;-63
2022/11/18 11:07:24;;;;;;;7.32;5.05;;;1.10;99.90;;;;;;5068448;28;20099;-65
2022/11/18 11:10:16;;;;;;;6.68;4.72;;;1.10;99.90;;;;;;5068328;28;20048;-64
2022/11/18 11:12:56;;;;;;;7.57;5.55;;;1.20;99.90;;;;;;5063968;28;20442;-64
2022/11/18 11:15:36;;;;;;;8.55;5.28;;;1.20;99.90;;;;;;5064246;28;20025;-65
2022/11/18 11:20:55;;;;;;;5.80;4.90;;;1.30;99.90;;;;;;5068793;28;20035;-65
2022/11/18 11:23:23;;;;;;;7.70;5.18;;;1.30;99.90;;;;;;5068119;28;20032;-64
2022/11/18 11:26:02;;;;;;;8.73;5.63;;;1.30;99.90;;;;;;5059082;28;20064;-65
2022/11/18 11:28:34;;;;;;;6.18;4.50;;;1.30;99.90;;;;;;5053579;28;20551;-63
2022/11/18 11:31:26;;;;;;;8.65;5.90;;;1.30;99.90;;;;;;5070154;28;20107;-64
2022/11/18 11:34:16;;;;;;;7.00;5.07;;;1.40;99.90;;;;;;5071650;28;20165;-65
2022/11/18 11:37:00;;;;;;;5.85;4.47;;;1.40;99.90;;;;;;5072408;28;20081;-62
2022/11/18 11:39:56;;;;;;;7.78;5.28;;;1.40;99.90;;;;;;5070698;28;20059;-63
2022/11/18 11:42:34;;;;;;;8.63;5.38;;;1.40;99.90;;;;;;5066472;28;20071;-62
2022/11/18 11:45:15;;;;;;;8.80;5.57;;;1.50;99.90;;;;;;5071508;28;20052;-65
2022/11/18 11:48:20;;;;;;;5.15;4.20;;;1.50;99.90;;;;;;5071690;28;20036;-63
2022/11/18 11:50:57;;;;;;;6.85;4.85;;;1.50;99.90;;;;;;5067761;28;20032;-64
2022/11/18 11:54:04;;;;;;;8.15;5.30;;;1.50;99.90;;;;;;5064098;28;20043;-65
2022/11/18 11:56:58;;;;;;;6.40;4.70;;;1.40;99.90;;;;;;5060908;28;20048;-64
2022/11/18 11:59:27;;;;;;;9.65;4.63;;;1.40;99.90;;;;;;5056819;28;20064;-64
2022/11/18 12:01:59;;;;;;;7.60;4.80;;;1.50;99.90;;;;;;5071482;28;20170;-63
2022/11/18 12:04:41;;;;;;;7.53;4.50;;;1.40;99.90;;;;;;5071002;28;20063;-64
2022/11/18 12:07:15;;;;;;;6.65;4.55;;;1.40;99.90;;;;;;5071504;28;20017;-64
2022/11/18 12:10:00;;;;;;;6.15;4.10;;;1.40;99.90;;;;;;5071658;28;20024;-64
2022/11/18 12:13:07;;;;;;;5.15;3.63;;;1.40;99.90;;;;;;5064436;28;20036;-61
2022/11/18 12:16:00;;;;;;;5.28;3.67;;;1.40;99.90;;;;;;5065319;28;20028;-63
2022/11/18 12:18:26;;;;;;;5.40;3.75;;;1.40;99.90;;;;;;5071037;28;20131;-64
2022/11/18 12:20:53;;;;;;;6.00;3.10;;;1.40;99.90;;;;;;5070637;28;20602;-64
2022/11/18 12:23:22;;;;;;;6.30;4.20;;;1.40;99.90;;;;;;5064946;28;20067;-64
2022/11/18 12:25:47;;;;;;;5.07;3.33;;;1.40;99.90;;;;;;5069416;28;20035;-62
2022/11/18 12:28:30;;;;;;;3.50;3.05;;;1.40;99.90;;;;;;5070190;28;20025;-64
2022/11/18 12:31:14;;;;;;;4.38;2.80;;;1.50;99.90;;;;;;5054355;28;20124;-63
2022/11/18 12:34:05;;;;;;;3.97;2.88;;;1.50;99.90;;;;;;5069387;28;20071;-64
2022/11/18 12:36:38;;;;;;;4.10;2.65;;;1.50;99.90;;;;;;5064247;28;20029;-63
2022/11/18 12:39:36;;;;;;;4.53;2.88;;;1.50;99.90;;;;;;5061963;28;20054;-64
2022/11/18 12:44:50;;;;;;;5.75;3.25;;;1.50;99.90;;;;;;5067401;28;20077;-64
2022/11/18 12:47:35;;;;;;;4.97;3.67;;;1.50;99.90;;;;;;5064187;28;20025;-64
2022/11/18 12:50:01;;;;;;;4.18;3.15;;;1.50;99.90;;;;;;5069303;28;20040;-63
2022/11/18 12:52:29;;;;;;;4.72;3.10;;;1.50;99.90;;;;;;5070557;28;20028;-63
2022/11/18 12:54:58;;;;;;;5.47;2.75;;;1.50;99.90;;;;;;5070522;28;20024;-64
2022/11/18 12:57:28;;;;;;;6.28;3.38;;;1.50;99.90;;;;;;5057584;28;20032;-63
2022/11/18 12:59:55;;;;;;;3.75;2.70;;;1.50;99.90;;;;;;5070293;28;20395;-63
2022/11/18 13:02:23;;;;;;;4.45;2.60;;;1.50;99.90;;;;;;5070255;28;20396;-64
2022/11/18 13:05:07;;;;;;;4.85;3.08;;;1.50;99.90;;;;;;5069701;28;20031;-64
2022/11/18 13:10:29;;;;;;;3.53;2.63;;;1.50;99.90;;;;;;5070443;28;20154;-62
2022/11/18 13:12:55;;;;;;;4.88;3.17;;;1.60;99.90;;;;;;5069844;28;20020;-60
2022/11/18 13:18:17;;;;;;;3.55;2.70;;;1.70;99.90;;;;;;5073142;28;20063;-62
2022/11/18 13:20:54;;;;;;;4.22;2.60;;;1.80;99.90;;;;;;5069785;28;20408;-63
2022/11/18 13:26:21;;;;;;;5.13;2.45;;;1.80;99.90;;;;;;5062560;28;20082;-63
2022/11/18 13:28:53;;;;;;;2.55;1.98;;;1.90;99.90;;;;;;5054761;28;20052;-63
2022/11/18 13:31:58;;;;;;;4.18;2.50;;;1.90;99.90;;;;;;5061612;28;20522;-63
2022/11/18 13:34:27;;;;;;;4.82;2.58;;;1.90;99.90;;;;;;5031411;28;20515;-61